Time;durP1;ratioP1;P1;durP2;ratioP2;P2;SDS_P1;SDS_P2;PMS_P1;PMS_P2;Temp;Humidity;BMP_temperature;BMP_pressure;BME280_temperature;BME280_humidity;BME280_pressure;Samples;Min_cycle;Max_cycle;Signal;HPM_P1;HPM_P2
2022/10/03 00:00:25;;;;;;;18.42;2.90;;;11.20;99.90;;;;;;4823389;29;20055;-67
2022/10/03 00:03:17;;;;;;;28.52;3.35;;;11.20;99.90;;;;;;4813072;29;20034;-66
2022/10/03 00:05:55;;;;;;;23.75;3.90;;;11.20;99.90;;;;;;4828264;29;20050;-65
2022/10/03 00:08:40;;;;;;;20.38;3.72;;;11.20;99.90;;;;;;4829558;29;20058;-65
2022/10/03 00:11:23;;;;;;;11.93;2.25;;;11.20;99.90;;;;;;4838103;29;20114;-66
2022/10/03 00:14:05;;;;;;;22.73;3.05;;;11.30;99.90;;;;;;4828600;29;20058;-66
2022/10/03 00:16:45;;;;;;;19.58;3.70;;;11.40;99.90;;;;;;4828778;29;20137;-66
2022/10/03 00:19:34;;;;;;;21.58;3.22;;;11.40;99.90;;;;;;4816540;29;20094;-67
2022/10/03 00:22:24;;;;;;;15.45;2.85;;;11.40;99.90;;;;;;4822341;29;20133;-67
2022/10/03 00:25:12;;;;;;;16.80;3.25;;;11.40;99.90;;;;;;4823119;29;20046;-67
2022/10/03 00:27:44;;;;;;;16.85;2.90;;;11.50;99.90;;;;;;4828590;29;20059;-67
2022/10/03 00:30:21;;;;;;;20.63;3.67;;;11.50;99.90;;;;;;4834139;29;20084;-67
2022/10/03 00:33:27;;;;;;;17.35;2.90;;;11.50;99.90;;;;;;4833882;29;20171;-67
2022/10/03 00:36:15;;;;;;;14.00;2.67;;;11.50;99.90;;;;;;4820050;29;20508;-66
2022/10/03 00:39:06;;;;;;;15.68;2.65;;;11.60;99.90;;;;;;4825713;29;20106;-67
2022/10/03 00:42:30;;;;;;;15.52;3.03;;;11.60;99.90;;;;;;4827606;29;20071;-67
2022/10/03 00:45:30;;;;;;;18.35;2.63;;;11.60;99.90;;;;;;4832817;29;20093;-66
2022/10/03 00:48:25;;;;;;;;;;;11.70;99.90;;;;;;4828382;29;20046;-66
2022/10/03 00:51:14;;;;;;;17.58;3.42;;;11.70;99.90;;;;;;4783758;29;19930;-66
2022/10/03 00:53:55;;;;;;;;;;;11.70;99.90;;;;;;4828349;29;20046;-66
2022/10/03 00:56:59;;;;;;;16.52;2.72;;;11.70;99.90;;;;;;4828671;29;20007;-67
2022/10/03 00:59:43;;;;;;;11.05;2.33;;;11.70;99.90;;;;;;4831321;29;20096;-66
2022/10/03 01:02:40;;;;;;;13.70;2.95;;;11.70;99.90;;;;;;4827816;29;20057;-66
2022/10/03 01:05:25;;;;;;;12.27;2.22;;;11.70;99.90;;;;;;4824563;29;20090;-66
2022/10/03 01:08:19;;;;;;;15.20;2.67;;;11.70;99.90;;;;;;4828540;29;20067;-65
2022/10/03 01:10:54;;;;;;;15.73;3.08;;;11.70;99.90;;;;;;4814377;29;20073;-66
2022/10/03 01:13:34;;;;;;;14.25;2.80;;;11.70;99.90;;;;;;4830446;29;20103;-66
2022/10/03 01:16:12;;;;;;;14.18;2.20;;;11.70;99.90;;;;;;4831629;29;20061;-66
2022/10/03 01:18:51;;;;;;;18.98;2.88;;;11.70;99.90;;;;;;4833314;29;20054;-66
2022/10/03 01:21:19;;;;;;;;;;;11.70;99.90;;;;;;4833949;29;20047;-65
2022/10/03 01:24:06;;;;;;;12.05;2.35;;;11.70;99.90;;;;;;4835033;29;19925;-66
2022/10/03 01:27:01;;;;;;;14.43;2.35;;;11.70;99.90;;;;;;4838257;29;20432;-65
2022/10/03 01:32:55;;;;;;;10.77;2.25;;;11.60;99.90;;;;;;4821916;29;20188;-65
2022/10/03 02:19:44;;;;;;;18.98;3.15;;;11.60;99.90;;;;;;5565305;23;20068;-65
2022/10/03 02:22:27;;;;;;;16.58;2.83;;;11.60;99.90;;;;;;4858035;29;20060;-65
2022/10/03 02:25:07;;;;;;;21.90;3.00;;;11.60;99.90;;;;;;4859901;29;20038;-66
2022/10/03 02:27:33;;;;;;;14.40;2.63;;;11.50;99.90;;;;;;4861209;29;20128;-66
2022/10/03 02:30:05;;;;;;;13.88;2.08;;;11.60;99.90;;;;;;4869860;29;20121;-65
2022/10/03 02:32:59;;;;;;;15.80;2.53;;;11.60;99.90;;;;;;4843240;29;20064;-65
2022/10/03 02:36:06;;;;;;;18.25;2.65;;;11.60;99.90;;;;;;4858485;29;20132;-64
2022/10/03 02:38:37;;;;;;;18.60;3.22;;;11.60;99.90;;;;;;4845606;29;20568;-66
2022/10/03 02:42:01;;;;;;;15.02;2.40;;;11.70;99.90;;;;;;4842241;29;20181;-65
2022/10/03 02:45:08;;;;;;;19.33;2.83;;;11.70;99.90;;;;;;4808917;29;20145;-65
2022/10/03 02:47:59;;;;;;;17.42;2.83;;;11.70;99.90;;;;;;4858272;29;20060;-65
2022/10/03 02:50:57;;;;;;;18.35;2.92;;;11.70;99.90;;;;;;4865297;29;20791;-65
2022/10/03 02:53:51;;;;;;;14.77;2.55;;;11.70;99.90;;;;;;4857068;29;20488;-65
2022/10/03 02:56:24;;;;;;;12.93;2.65;;;11.70;99.90;;;;;;4856964;29;20052;-65
2022/10/03 02:59:20;;;;;;;16.85;2.92;;;11.70;99.90;;;;;;4868665;29;20049;-65
2022/10/03 03:02:07;;;;;;;10.68;2.42;;;11.70;99.90;;;;;;4858338;29;20045;-65
2022/10/03 03:04:51;;;;;;;13.77;2.42;;;11.80;99.90;;;;;;4861676;29;20136;-66
2022/10/03 03:07:35;;;;;;;21.70;2.53;;;11.80;99.90;;;;;;4854785;29;20069;-66
2022/10/03 03:10:32;;;;;;;20.42;2.80;;;11.80;99.90;;;;;;4843621;29;20056;-65
2022/10/03 03:13:40;;;;;;;13.25;2.60;;;11.80;99.90;;;;;;4856792;29;20086;-66
2022/10/03 03:16:19;;;;;;;16.70;2.67;;;11.80;99.90;;;;;;4853730;29;20057;-66
2022/10/03 03:19:05;;;;;;;24.20;3.58;;;11.80;99.90;;;;;;4854081;29;20048;-67
2022/10/03 03:21:49;;;;;;;18.48;2.95;;;11.80;99.90;;;;;;4863914;29;20084;-66
2022/10/03 03:24:20;;;;;;;8.30;2.00;;;11.80;99.90;;;;;;4858940;29;20084;-66
2022/10/03 03:27:02;;;;;;;11.85;1.90;;;11.80;99.90;;;;;;4860566;29;20073;-65
2022/10/03 03:29:31;;;;;;;16.95;2.97;;;11.80;99.90;;;;;;4843895;29;20050;-66
2022/10/03 03:32:27;;;;;;;20.95;3.17;;;11.80;99.90;;;;;;4841988;29;20050;-66
2022/10/03 03:35:08;;;;;;;17.60;3.13;;;11.80;99.90;;;;;;4856034;29;20190;-66
2022/10/03 03:37:44;;;;;;;18.65;2.50;;;11.80;99.90;;;;;;4847844;29;20140;-66
2022/10/03 03:40:16;;;;;;;16.10;2.40;;;11.80;99.90;;;;;;4857993;29;20053;-65
2022/10/03 03:43:23;;;;;;;12.88;1.98;;;12.50;99.90;;;;;;4859727;29;20041;-65
2022/10/03 03:46:04;;;;;;;14.50;2.28;;;11.80;99.90;;;;;;4854007;29;20042;-64
2022/10/03 03:48:45;;;;;;;16.67;2.42;;;11.80;99.90;;;;;;4846439;29;20108;-66
2022/10/03 03:51:38;;;;;;;12.68;2.00;;;11.80;99.90;;;;;;4848573;29;20054;-67
2022/10/03 03:54:32;;;;;;;19.50;2.40;;;11.80;99.90;;;;;;4854535;29;20106;-66
2022/10/03 03:57:10;;;;;;;15.77;2.17;;;11.80;99.90;;;;;;4864642;29;20087;-66
2022/10/03 04:00:04;;;;;;;12.30;2.63;;;11.90;99.90;;;;;;4859738;29;20064;-63
2022/10/03 04:03:04;;;;;;;13.88;2.10;;;11.90;99.90;;;;;;4855013;29;20055;-65
2022/10/03 04:05:53;;;;;;;16.80;2.77;;;11.80;99.90;;;;;;4863451;29;20056;-65
2022/10/03 04:08:39;;;;;;;18.27;2.47;;;11.90;99.90;;;;;;4851026;29;20112;-64
2022/10/03 04:11:16;;;;;;;19.05;3.05;;;11.80;99.90;;;;;;4862499;29;20052;-64
2022/10/03 04:14:20;;;;;;;14.65;2.55;;;11.80;99.90;;;;;;4858133;29;20118;-66
2022/10/03 04:20:30;;;;;;;12.98;2.13;;;11.90;99.90;;;;;;4867015;29;20085;-64
2022/10/03 04:23:17;;;;;;;12.50;2.67;;;11.90;99.90;;;;;;4871965;29;20041;-67
2022/10/03 04:26:25;;;;;;;13.10;2.47;;;11.80;99.90;;;;;;4857468;29;20049;-66
2022/10/03 04:29:29;;;;;;;13.68;2.70;;;11.80;99.90;;;;;;4854662;29;20042;-64
2022/10/03 04:32:09;;;;;;;14.80;3.30;;;11.80;99.90;;;;;;4856774;29;20081;-66
2022/10/03 04:34:56;;;;;;;10.15;1.90;;;11.80;99.90;;;;;;4858597;29;20057;-65
2022/10/03 04:37:37;;;;;;;13.27;2.13;;;11.80;99.90;;;;;;4868637;29;20049;-65
2022/10/03 04:40:40;;;;;;;11.48;2.13;;;11.80;99.90;;;;;;4860648;29;20415;-66
2022/10/03 04:43:12;;;;;;;13.82;2.58;;;11.80;99.90;;;;;;4862447;29;20132;-66
2022/10/03 04:45:56;;;;;;;12.32;2.28;;;11.90;99.90;;;;;;4859882;29;20399;-66
2022/10/03 04:48:43;;;;;;;19.05;2.97;;;11.80;99.90;;;;;;4861694;29;20136;-66
2022/10/03 04:51:32;;;;;;;18.30;2.78;;;11.80;99.90;;;;;;4866199;29;20077;-66
2022/10/03 04:54:18;;;;;;;19.15;2.47;;;11.80;99.90;;;;;;4863148;29;20053;-65
2022/10/03 04:56:55;;;;;;;15.23;3.05;;;11.80;99.90;;;;;;4861501;29;20050;-65
2022/10/03 04:59:33;;;;;;;12.32;2.20;;;11.70;99.90;;;;;;4860954;29;20097;-67
2022/10/03 05:02:13;;;;;;;17.17;2.65;;;11.70;99.90;;;;;;4875260;29;20049;-67
2022/10/03 05:05:06;;;;;;;12.27;2.30;;;11.70;99.90;;;;;;4870203;29;20049;-65
2022/10/03 05:07:41;;;;;;;16.17;2.17;;;11.70;99.90;;;;;;4877386;29;20049;-66
2022/10/03 05:10:36;;;;;;;8.15;2.03;;;11.60;99.90;;;;;;4859112;29;20392;-65
2022/10/03 05:13:31;;;;;;;16.75;2.40;;;11.60;99.90;;;;;;4854318;29;20057;-65
2022/10/03 05:16:27;;;;;;;12.98;1.92;;;11.50;99.90;;;;;;4863828;29;20128;-66
2022/10/03 05:19:32;;;;;;;18.17;2.53;;;11.50;99.90;;;;;;4838340;29;20508;-65
2022/10/03 05:22:29;;;;;;;10.00;2.10;;;11.50;99.90;;;;;;4857656;29;20049;-67
2022/10/03 05:25:17;;;;;;;13.10;2.05;;;11.40;99.90;;;;;;4863769;29;20113;-65
2022/10/03 05:27:53;;;;;;;18.83;2.67;;;11.40;99.90;;;;;;4856117;29;20049;-65
2022/10/03 05:30:48;;;;;;;19.00;2.58;;;11.40;99.90;;;;;;4844152;29;20047;-66
2022/10/03 05:33:47;;;;;;;13.23;2.40;;;11.40;99.90;;;;;;4838406;29;20050;-65
2022/10/03 05:36:28;;;;;;;14.13;2.10;;;11.30;99.90;;;;;;4855400;29;20064;-65
2022/10/03 05:39:45;;;;;;;13.77;2.17;;;11.30;99.90;;;;;;4862457;29;20399;-65
2022/10/03 05:42:44;;;;;;;17.90;2.78;;;11.30;99.90;;;;;;4826327;29;20457;-64
2022/10/03 05:45:41;;;;;;;10.52;2.15;;;11.30;99.90;;;;;;4843323;29;20125;-66
2022/10/03 05:48:14;;;;;;;13.95;2.35;;;11.20;99.90;;;;;;4861693;29;20065;-65
2022/10/03 05:50:56;;;;;;;10.23;2.17;;;11.20;99.90;;;;;;4857622;29;20048;-66
2022/10/03 05:53:56;;;;;;;14.38;2.20;;;11.10;99.90;;;;;;4844036;29;20093;-66
2022/10/03 05:56:44;;;;;;;14.98;2.45;;;11.10;99.90;;;;;;4839203;29;20419;-66
2022/10/03 05:59:19;;;;;;;11.30;2.53;;;11.10;99.90;;;;;;4859741;29;20049;-67
2022/10/03 06:01:47;;;;;;;15.38;2.42;;;11.00;99.90;;;;;;4859675;29;20080;-65
2022/10/03 06:04:54;;;;;;;13.15;2.10;;;11.00;99.90;;;;;;4857174;29;20055;-66
2022/10/03 06:07:50;;;;;;;13.18;2.92;;;11.00;99.90;;;;;;4854994;29;20060;-65
2022/10/03 06:10:40;;;;;;;10.30;1.75;;;10.90;99.90;;;;;;4814562;29;20058;-66
2022/10/03 06:13:37;;;;;;;15.25;2.20;;;10.90;99.90;;;;;;4859791;29;20049;-65
2022/10/03 06:16:41;;;;;;;17.60;2.85;;;10.90;99.90;;;;;;4840616;29;20049;-66
2022/10/03 06:19:14;;;;;;;10.35;2.10;;;10.90;99.90;;;;;;4863500;29;20128;-65
2022/10/03 06:22:09;;;;;;;16.08;3.03;;;10.90;99.90;;;;;;4862352;29;20037;-65
2022/10/03 06:24:52;;;;;;;9.15;2.38;;;10.90;99.90;;;;;;4851038;29;20049;-65
2022/10/03 06:27:55;;;;;;;14.45;2.50;;;10.90;99.90;;;;;;4862503;29;20048;-67
2022/10/03 06:30:52;;;;;;;12.68;2.10;;;10.90;99.90;;;;;;4858686;29;20049;-65
2022/10/03 06:33:39;;;;;;;8.65;1.98;;;10.90;99.90;;;;;;4872273;29;20080;-67
2022/10/03 06:36:37;;;;;;;14.80;2.78;;;10.90;99.90;;;;;;4860322;29;20048;-66
2022/10/03 06:39:08;;;;;;;13.15;2.75;;;10.90;99.90;;;;;;4865117;29;20056;-66
2022/10/03 06:41:59;;;;;;;24.02;2.50;;;10.90;99.90;;;;;;4838065;29;20053;-66
2022/10/03 06:45:02;;;;;;;13.07;2.25;;;10.90;99.90;;;;;;4861840;29;20068;-66
2022/10/03 06:47:51;;;;;;;10.23;2.60;;;11.00;99.90;;;;;;4869026;29;20184;-64
2022/10/03 06:50:25;;;;;;;;;;;11.00;99.90;;;;;;4866531;29;20052;-67
2022/10/03 06:53:18;;;;;;;14.38;2.85;;;11.50;99.90;;;;;;4859689;29;19928;-65
2022/10/03 06:56:04;;;;;;;14.75;2.88;;;11.10;99.90;;;;;;4858762;29;20102;-65
2022/10/03 06:59:14;;;;;;;13.63;2.55;;;11.10;99.90;;;;;;4847936;29;20062;-66
2022/10/03 07:01:49;;;;;;;15.13;2.67;;;11.20;99.90;;;;;;4837553;29;20654;-66
2022/10/03 07:04:48;;;;;;;9.00;2.03;;;11.20;99.90;;;;;;4855770;29;20148;-66
2022/10/03 07:07:52;;;;;;;15.77;3.17;;;11.30;99.90;;;;;;4863638;29;20136;-66
2022/10/03 07:10:27;;;;;;;9.90;1.92;;;11.40;99.90;;;;;;4861173;29;20049;-66
2022/10/03 07:13:04;;;;;;;12.10;2.72;;;11.50;99.90;;;;;;4841078;29;20058;-66
2022/10/03 07:15:50;;;;;;;16.38;2.70;;;11.60;99.90;;;;;;4856923;29;20503;-66
2022/10/03 07:18:36;;;;;;;14.30;2.53;;;11.70;99.90;;;;;;4864356;29;20045;-66
2022/10/03 07:21:14;;;;;;;16.40;2.72;;;11.80;99.90;;;;;;4856472;29;20054;-68
2022/10/03 07:24:01;;;;;;;16.45;2.85;;;11.90;99.90;;;;;;4859419;29;20514;-67
2022/10/03 07:26:39;;;;;;;11.25;2.22;;;12.00;99.90;;;;;;4855728;29;20072;-66
2022/10/03 07:29:26;;;;;;;14.07;2.40;;;12.20;99.90;;;;;;4856944;29;20081;-65
2022/10/03 07:32:13;;;;;;;12.07;2.47;;;12.30;99.90;;;;;;4850830;29;20064;-66
2022/10/03 07:35:01;;;;;;;13.35;2.95;;;12.50;99.90;;;;;;4854218;29;20059;-64
2022/10/03 07:40:57;;;;;;;10.27;2.22;;;12.80;99.90;;;;;;4856814;29;20475;-66
2022/10/03 07:43:45;;;;;;;16.83;2.50;;;13.00;99.90;;;;;;4857909;29;20140;-66
2022/10/03 07:46:40;;;;;;;21.88;2.72;;;13.20;99.90;;;;;;4860387;29;20060;-65
2022/10/03 07:49:33;;;;;;;14.25;2.15;;;13.30;99.90;;;;;;4858182;29;20045;-68
2022/10/03 07:52:18;;;;;;;11.13;2.95;;;13.40;99.90;;;;;;4840743;29;20045;-66
2022/10/03 07:54:50;;;;;;;9.63;2.05;;;13.50;99.90;;;;;;4860570;29;20117;-66
2022/10/03 07:57:24;;;;;;;13.15;2.25;;;13.60;99.90;;;;;;4857148;29;20086;-66
2022/10/03 08:00:06;;;;;;;12.85;2.38;;;13.70;99.90;;;;;;4858678;29;20405;-67
2022/10/03 08:02:49;;;;;;;12.00;2.33;;;13.90;99.90;;;;;;4858251;29;20041;-68
2022/10/03 08:05:42;;;;;;;14.65;2.63;;;14.10;99.90;;;;;;4834112;29;20493;-67
2022/10/03 08:08:53;;;;;;;14.25;2.28;;;14.30;99.90;;;;;;4826523;29;20046;-66
2022/10/03 08:11:32;;;;;;;16.38;3.10;;;14.40;99.90;;;;;;4850091;29;20046;-67
2022/10/03 08:14:09;;;;;;;15.63;3.22;;;14.50;99.90;;;;;;4841107;29;20046;-66
2022/10/03 08:16:59;;;;;;;18.10;3.05;;;14.60;99.90;;;;;;4856642;29;20045;-66
2022/10/03 08:19:38;;;;;;;15.32;2.72;;;14.70;99.90;;;;;;4855331;29;20118;-65
2022/10/03 08:22:48;;;;;;;11.05;2.63;;;14.70;99.90;;;;;;4859747;29;20050;-66
2022/10/03 08:25:47;;;;;;;11.60;1.90;;;14.80;99.90;;;;;;4862908;29;20046;-65
2022/10/03 08:28:44;;;;;;;14.23;2.15;;;14.90;99.90;;;;;;4816050;29;20109;-67
2022/10/03 08:31:52;;;;;;;12.05;2.13;;;15.00;99.90;;;;;;4838863;29;20064;-65
2022/10/03 08:35:05;;;;;;;12.05;2.28;;;15.10;99.90;;;;;;4842669;29;20152;-67
2022/10/03 08:38:11;;;;;;;11.57;2.75;;;15.30;99.90;;;;;;4855366;29;20045;-66
2022/10/03 08:41:04;;;;;;;10.40;2.17;;;15.40;99.90;;;;;;4856490;29;20471;-65
2022/10/03 08:43:47;;;;;;;13.45;2.60;;;15.60;99.90;;;;;;4858312;29;20512;-66
2022/10/03 08:46:41;;;;;;;13.02;2.55;;;15.70;99.90;;;;;;4854152;29;20056;-66
2022/10/03 08:49:32;;;;;;;11.95;2.65;;;15.80;99.90;;;;;;4849885;29;20046;-65
2022/10/03 08:52:15;;;;;;;13.63;2.38;;;16.00;99.90;;;;;;4847437;29;20076;-67
2022/10/03 08:54:56;;;;;;;10.77;2.22;;;16.10;99.90;;;;;;4857034;29;20042;-66
2022/10/03 08:57:30;;;;;;;9.02;2.40;;;16.20;99.90;;;;;;4854021;29;20041;-65
2022/10/03 09:00:17;;;;;;;17.05;2.42;;;16.20;99.90;;;;;;4857891;29;20057;-67
2022/10/03 09:03:12;;;;;;;10.55;1.92;;;16.20;99.90;;;;;;4839120;29;20053;-65
2022/10/03 09:05:49;;;;;;;17.45;2.53;;;16.30;99.90;;;;;;4842264;29;20154;-65
2022/10/03 09:08:40;;;;;;;10.45;1.73;;;16.50;99.90;;;;;;4856332;29;21876;-65
2022/10/03 09:11:14;;;;;;;14.27;2.03;;;16.60;99.90;;;;;;4857760;29;20397;-66
2022/10/03 09:14:09;;;;;;;11.13;2.17;;;16.70;99.90;;;;;;4858450;29;20046;-65
2022/10/03 09:17:01;;;;;;;7.88;2.05;;;16.80;99.90;;;;;;4859072;29;20061;-66
2022/10/03 09:20:13;;;;;;;9.18;1.70;;;16.90;99.90;;;;;;4840246;29;20065;-66
2022/10/03 09:23:28;;;;;;;9.82;1.77;;;17.00;99.90;;;;;;4860710;29;20041;-66
2022/10/03 09:26:14;;;;;;;8.35;2.17;;;17.10;99.90;;;;;;4852581;29;20069;-66
2022/10/03 09:29:14;;;;;;;8.32;1.77;;;17.10;99.90;;;;;;4850114;29;20052;-66
2022/10/03 09:32:18;;;;;;;12.77;2.22;;;17.20;99.90;;;;;;4836460;29;20048;-66
2022/10/03 09:34:59;;;;;;;11.75;2.15;;;17.30;99.90;;;;;;4853631;29;20038;-65
2022/10/03 09:37:33;;;;;;;7.60;1.80;;;17.40;99.90;;;;;;4848559;29;20576;-65
2022/10/03 09:40:40;;;;;;;13.73;2.40;;;17.60;99.90;;;;;;4827947;29;20054;-67
2022/10/03 09:43:32;;;;;;;7.05;1.60;;;17.60;99.90;;;;;;4754161;29;20044;-65
2022/10/03 09:46:41;;;;;;;9.23;1.73;;;17.80;99.90;;;;;;4846499;29;20102;-65
2022/10/03 09:49:38;;;;;;;10.75;1.85;;;18.00;99.90;;;;;;4834472;29;20064;-66
2022/10/03 09:52:24;;;;;;;6.80;1.98;;;18.10;99.90;;;;;;4850878;29;20457;-66
2022/10/03 09:55:05;;;;;;;14.55;2.08;;;18.20;99.90;;;;;;4851593;29;20045;-65
2022/10/03 09:57:50;;;;;;;10.57;2.00;;;18.30;99.90;;;;;;4860848;29;20152;-66
2022/10/03 10:00:24;;;;;;;15.43;1.70;;;18.20;99.90;;;;;;4855869;29;20072;-66
2022/10/03 10:03:20;;;;;;;14.60;2.45;;;18.20;99.90;;;;;;4859814;29;20412;-66
2022/10/03 10:06:08;;;;;;;12.27;2.28;;;18.40;99.90;;;;;;4874861;29;20492;-65
2022/10/03 10:09:04;;;;;;;12.93;2.78;;;18.60;99.90;;;;;;4858056;29;20050;-65
2022/10/03 10:12:12;;;;;;;8.85;2.13;;;18.70;99.90;;;;;;4858465;29;20407;-65
2022/10/03 10:14:59;;;;;;;12.13;2.20;;;19.00;99.90;;;;;;4859394;29;20056;-66
2022/10/03 10:17:51;;;;;;;12.32;2.03;;;19.40;99.90;;;;;;4853677;29;20148;-66
2022/10/03 10:20:57;;;;;;;9.30;2.33;;;19.60;99.90;;;;;;4850498;29;20058;-66
2022/10/03 10:23:51;;;;;;;7.78;2.28;;;19.90;99.90;;;;;;4857543;29;20045;-66
2022/10/03 10:26:45;;;;;;;7.63;1.88;;;20.20;99.90;;;;;;4841366;29;20053;-67
2022/10/03 10:29:30;;;;;;;6.72;1.90;;;20.40;99.90;;;;;;4851152;29;20064;-66
2022/10/03 10:31:58;;;;;;;5.65;1.80;;;20.50;99.90;;;;;;4858415;29;20120;-66
2022/10/03 10:35:01;;;;;;;9.90;2.13;;;20.70;99.90;;;;;;4847103;29;20049;-66
2022/10/03 10:37:41;;;;;;;7.40;2.13;;;20.60;99.90;;;;;;4841526;29;20053;-66
2022/10/03 10:40:28;;;;;;;7.50;1.88;;;20.40;99.90;;;;;;4837382;29;20054;-66
2022/10/03 10:42:59;;;;;;;10.93;1.90;;;20.20;99.90;;;;;;4843590;29;20049;-66
2022/10/03 10:45:44;;;;;;;8.30;1.90;;;20.20;99.90;;;;;;4858954;29;20106;-65
2022/10/03 10:48:46;;;;;;;7.75;2.17;;;20.60;99.90;;;;;;4860561;29;20085;-65
2022/10/03 10:51:28;;;;;;;9.50;2.53;;;21.00;99.90;;;;;;4858689;29;20056;-66
2022/10/03 10:54:21;;;;;;;6.53;1.70;;;21.10;99.90;;;;;;4859022;29;20057;-66
2022/10/03 10:57:21;;;;;;;7.00;1.73;;;21.40;99.90;;;;;;4859004;29;20057;-65
2022/10/03 11:00:02;;;;;;;7.53;1.95;;;21.50;99.90;;;;;;4851624;29;20499;-65
2022/10/03 11:02:49;;;;;;;8.32;1.80;;;21.80;99.10;;;;;;4854679;29;20045;-65
2022/10/03 11:05:38;;;;;;;6.65;1.80;;;21.80;99.90;;;;;;4859831;29;20037;-67
2022/10/03 11:08:31;;;;;;;6.05;1.10;;;21.90;99.90;;;;;;4861347;29;20489;-66
2022/10/03 11:10:59;;;;;;;9.80;2.30;;;22.10;97.20;;;;;;4852267;29;20049;-66
2022/10/03 11:13:26;;;;;;;15.77;2.35;;;21.80;98.80;;;;;;4858839;29;20350;-67
2022/10/03 11:16:14;;;;;;;8.77;1.92;;;21.80;99.10;;;;;;4843769;29;20045;-66
2022/10/03 11:19:10;;;;;;;5.43;1.42;;;21.90;97.40;;;;;;4859602;29;20566;-68
2022/10/03 11:22:15;;;;;;;5.90;1.92;;;21.90;97.70;;;;;;4857044;29;20202;-67
2022/10/03 11:25:06;;;;;;;5.35;1.27;;;22.10;97.70;;;;;;4855159;29;20045;-68
2022/10/03 11:27:53;;;;;;;6.72;1.75;;;22.00;97.80;;;;;;4861568;29;20461;-67
2022/10/03 11:30:30;;;;;;;7.15;1.85;;;21.80;96.80;;;;;;4840604;29;20053;-68
2022/10/03 11:33:38;;;;;;;4.57;1.40;;;21.30;97.90;;;;;;4859601;29;20061;-66
2022/10/03 11:36:37;;;;;;;7.72;1.83;;;21.00;98.00;;;;;;4844366;29;20060;-66
2022/10/03 11:39:14;;;;;;;12.20;2.05;;;20.90;95.90;;;;;;4857941;29;20057;-67
2022/10/03 11:41:52;;;;;;;9.07;1.70;;;20.50;98.30;;;;;;4859435;29;20124;-67
2022/10/03 11:44:29;;;;;;;2.97;1.40;;;20.40;96.50;;;;;;4860960;29;20037;-66
2022/10/03 11:47:15;;;;;;;6.40;1.73;;;20.30;97.30;;;;;;4857881;29;20080;-66
2022/10/03 11:49:56;;;;;;;8.77;1.70;;;20.10;98.70;;;;;;4857597;29;20124;-66
2022/10/03 11:52:40;;;;;;;12.68;2.58;;;20.00;99.40;;;;;;4852128;29;20098;-65
2022/10/03 11:55:42;;;;;;;4.53;1.45;;;20.00;98.80;;;;;;4848979;29;20503;-65
2022/10/03 11:58:17;;;;;;;9.20;1.88;;;19.70;99.20;;;;;;4848464;29;20410;-66
2022/10/03 12:00:50;;;;;;;5.15;1.40;;;19.60;98.70;;;;;;4839388;29;20038;-67
2022/10/03 12:03:28;;;;;;;5.85;1.65;;;19.50;99.20;;;;;;4854904;29;20185;-67
2022/10/03 12:09:39;;;;;;;6.38;1.80;;;19.80;99.30;;;;;;4832476;29;20057;-66
2022/10/03 12:12:28;;;;;;;8.80;1.60;;;19.70;99.00;;;;;;4851680;29;20049;-65
2022/10/03 12:15:02;;;;;;;9.80;1.73;;;19.70;99.90;;;;;;4861610;29;20050;-66
2022/10/03 12:17:33;;;;;;;9.00;2.15;;;19.80;99.90;;;;;;4839759;29;20075;-66
2022/10/03 12:20:38;;;;;;;9.27;1.58;;;20.00;99.90;;;;;;4853773;29;20053;-65
2022/10/03 12:23:43;;;;;;;7.97;1.90;;;20.00;97.90;;;;;;4856575;29;20061;-66
2022/10/03 12:26:16;;;;;;;6.72;2.00;;;19.80;99.30;;;;;;4856924;29;20104;-66
2022/10/03 12:28:47;;;;;;;10.63;2.10;;;19.60;99.80;;;;;;4857248;29;20392;-65
2022/10/03 12:31:28;;;;;;;5.47;1.60;;;19.50;99.90;;;;;;4856813;29;20041;-65
2022/10/03 12:34:12;;;;;;;9.20;1.92;;;19.50;99.80;;;;;;4858537;29;20049;-65
2022/10/03 12:36:56;;;;;;;5.85;1.73;;;19.30;99.80;;;;;;4859931;29;20064;-66
2022/10/03 12:39:30;;;;;;;6.30;1.65;;;19.20;99.90;;;;;;4854170;29;20057;-66
2022/10/03 12:42:17;;;;;;;8.23;1.40;;;19.20;99.90;;;;;;4854289;29;20093;-66
2022/10/03 12:45:01;;;;;;;8.88;1.95;;;19.10;99.90;;;;;;4857474;29;20057;-66
2022/10/03 12:47:55;;;;;;;4.47;1.60;;;19.00;99.90;;;;;;4852480;29;20054;-67
2022/10/03 12:51:05;;;;;;;5.68;1.83;;;19.00;99.90;;;;;;4830162;29;20057;-68
2022/10/03 12:53:37;;;;;;;;;;;19.00;99.90;;;;;;4788488;29;20063;-65
2022/10/03 12:56:11;;;;;;;8.40;2.13;;;18.90;99.90;;;;;;4803293;29;20048;-67
2022/10/03 12:58:52;;;;;;;8.02;1.77;;;18.90;99.90;;;;;;4826806;29;20515;-66
2022/10/03 13:01:44;;;;;;;8.07;1.80;;;19.00;99.90;;;;;;4833122;29;21048;-65
2022/10/03 13:04:30;;;;;;;4.78;1.75;;;18.90;99.90;;;;;;4839634;29;20096;-67
2022/10/03 13:07:19;;;;;;;5.45;1.40;;;18.80;99.90;;;;;;4863338;29;20057;-65
2022/10/03 13:10:02;;;;;;;8.00;1.60;;;18.80;99.90;;;;;;4859879;29;20046;-66
2022/10/03 13:12:45;;;;;;;10.10;2.75;;;18.70;99.90;;;;;;4857711;29;20054;-67
2022/10/03 13:15:46;;;;;;;7.55;1.50;;;18.60;99.90;;;;;;4857128;29;20061;-66
2022/10/03 13:18:28;;;;;;;5.57;1.42;;;18.60;99.90;;;;;;4835958;29;20064;-66
2022/10/03 13:21:09;;;;;;;7.22;1.70;;;18.50;99.90;;;;;;4827962;29;20136;-66
2022/10/03 13:23:53;;;;;;;6.13;1.40;;;18.50;99.90;;;;;;4862384;29;20128;-66
2022/10/03 13:26:52;;;;;;;10.40;1.80;;;18.40;99.90;;;;;;4844820;29;20500;-66
2022/10/03 13:29:28;;;;;;;9.75;1.80;;;18.40;99.90;;;;;;4844806;29;20085;-65
2022/10/03 13:32:15;;;;;;;5.25;1.50;;;18.40;99.90;;;;;;4863018;29;20105;-66
2022/10/03 13:34:55;;;;;;;6.82;1.42;;;18.30;99.90;;;;;;4842867;29;20062;-67
2022/10/03 13:37:34;;;;;;;8.27;1.80;;;18.40;99.90;;;;;;4844695;29;20401;-66
2022/10/03 13:40:10;;;;;;;6.30;1.60;;;18.20;99.90;;;;;;4860950;29;20053;-67
2022/10/03 13:42:46;;;;;;;8.73;1.83;;;18.20;99.90;;;;;;4861620;29;20049;-66
2022/10/03 13:45:17;;;;;;;6.72;1.42;;;18.20;99.90;;;;;;4862963;29;20057;-66
2022/10/03 13:48:01;;;;;;;7.38;1.50;;;18.20;99.90;;;;;;4847567;29;20046;-67
2022/10/03 13:50:48;;;;;;;8.20;1.98;;;18.20;99.90;;;;;;4857350;29;20053;-66
2022/10/03 13:53:50;;;;;;;6.05;1.63;;;18.10;99.90;;;;;;4862171;29;20084;-66
2022/10/03 13:56:34;;;;;;;7.07;1.90;;;18.20;99.90;;;;;;4860444;29;20068;-66
2022/10/03 13:59:04;;;;;;;10.38;1.55;;;18.10;99.90;;;;;;4863644;29;20094;-67
2022/10/03 14:01:49;;;;;;;7.72;1.67;;;18.10;99.90;;;;;;4859579;29;20441;-65
2022/10/03 14:05:02;;;;;;;6.47;1.67;;;18.10;99.90;;;;;;4841506;29;20548;-67
2022/10/03 14:07:40;;;;;;;;;;;18.00;99.90;;;;;;4849187;29;20480;-66
2022/10/03 14:10:15;;;;;;;6.75;1.70;;;17.80;99.90;;;;;;4855062;29;19924;-65
2022/10/03 14:13:11;;;;;;;7.43;1.80;;;17.90;99.90;;;;;;4856053;29;20057;-66
2022/10/03 14:15:57;;;;;;;7.30;1.55;;;17.80;99.90;;;;;;4858698;29;20386;-65
2022/10/03 14:18:38;;;;;;;9.48;1.85;;;17.70;99.90;;;;;;4857605;29;20433;-66
2022/10/03 14:21:16;;;;;;;10.82;1.88;;;17.80;99.90;;;;;;4859121;29;20053;-65
2022/10/03 14:24:19;;;;;;;4.57;1.42;;;17.70;99.90;;;;;;4859600;29;20062;-65
2022/10/03 14:27:01;;;;;;;5.55;1.60;;;17.60;99.90;;;;;;4859638;29;20061;-65
2022/10/03 14:29:58;;;;;;;6.60;2.08;;;17.60;99.90;;;;;;4858140;29;20041;-67
2022/10/03 14:32:37;;;;;;;10.85;1.88;;;17.50;99.90;;;;;;4867914;29;20053;-66
2022/10/03 14:35:32;;;;;;;6.60;1.58;;;17.50;99.90;;;;;;4858515;29;20503;-67
2022/10/03 14:38:18;;;;;;;5.28;1.63;;;17.50;99.90;;;;;;4849262;29;20048;-67
2022/10/03 14:40:56;;;;;;;8.07;2.05;;;17.40;99.90;;;;;;4854515;29;20049;-66
2022/10/03 14:43:32;;;;;;;8.25;1.60;;;17.40;99.90;;;;;;4845243;29;20037;-66
2022/10/03 14:46:01;;;;;;;5.00;1.40;;;17.50;99.90;;;;;;4856347;29;20078;-66
2022/10/03 14:48:30;;;;;;;5.43;1.65;;;17.30;99.90;;;;;;4850283;29;20049;-65
2022/10/03 14:51:07;;;;;;;5.70;1.52;;;17.30;99.90;;;;;;4837980;29;20057;-65
2022/10/03 14:53:38;;;;;;;10.05;1.92;;;17.20;99.90;;;;;;4861835;29;20191;-66
2022/10/03 14:56:07;;;;;;;6.75;1.95;;;17.20;99.90;;;;;;4861030;29;20055;-66
2022/10/03 14:58:49;;;;;;;8.55;1.80;;;17.20;99.90;;;;;;4869188;29;20064;-66
2022/10/03 15:01:23;;;;;;;4.97;1.73;;;17.20;99.90;;;;;;4863148;29;20102;-66
2022/10/03 15:04:12;;;;;;;9.07;2.08;;;17.10;99.90;;;;;;4843000;29;20053;-65
2022/10/03 15:06:44;;;;;;;5.72;1.55;;;17.10;99.90;;;;;;4828403;29;20058;-65
2022/10/03 15:09:18;;;;;;;8.18;1.67;;;17.10;99.90;;;;;;4870832;29;20053;-65
2022/10/03 15:12:22;;;;;;;7.30;1.88;;;17.20;99.90;;;;;;4858160;29;20042;-66
2022/10/03 15:15:05;;;;;;;5.30;1.63;;;17.10;99.90;;;;;;4859152;29;20498;-66
2022/10/03 15:17:35;;;;;;;7.97;1.40;;;17.10;99.90;;;;;;4858001;29;20056;-65
2022/10/03 15:20:04;;;;;;;7.03;1.90;;;17.10;99.90;;;;;;4858088;29;20057;-66
2022/10/03 15:22:41;;;;;;;5.40;1.42;;;17.20;99.90;;;;;;4860840;29;20181;-65